sensor_id;sensor_type;location;lat;lon;timestamp;pressure;altitude;pressure_sealevel;temperature;humidity
77823;BME280;67013;49.730;17.292;2023-01-19T00:01:41;96894.50;;;2.96;76.08
77823;BME280;67013;49.730;17.292;2023-01-19T00:04:11;96900.35;;;2.94;76.10
77823;BME280;67013;49.730;17.292;2023-01-19T00:06:40;96899.61;;;2.89;76.09
77823;BME280;67013;49.730;17.292;2023-01-19T00:09:10;96896.95;;;2.84;75.98
77823;BME280;67013;49.730;17.292;2023-01-19T00:11:40;96892.02;;;2.81;75.98
77823;BME280;67013;49.730;17.292;2023-01-19T00:14:09;96892.11;;;2.82;75.96
77823;BME280;67013;49.730;17.292;2023-01-19T00:16:39;96893.67;;;2.82;76.05
77823;BME280;67013;49.730;17.292;2023-01-19T00:19:09;96897.71;;;2.81;75.97
77823;BME280;67013;49.730;17.292;2023-01-19T00:21:38;96898.98;;;2.77;76.04
77823;BME280;67013;49.730;17.292;2023-01-19T00:24:08;96900.04;;;2.74;76.09
77823;BME280;67013;49.730;17.292;2023-01-19T00:26:38;96897.83;;;2.72;76.07
77823;BME280;67013;49.730;17.292;2023-01-19T00:29:10;96898.86;;;2.69;76.07
77823;BME280;67013;49.730;17.292;2023-01-19T00:31:40;96898.14;;;2.64;76.11
77823;BME280;67013;49.730;17.292;2023-01-19T00:34:09;96898.48;;;2.59;76.12
77823;BME280;67013;49.730;17.292;2023-01-19T00:36:39;96896.80;;;2.53;76.23
77823;BME280;67013;49.730;17.292;2023-01-19T00:39:08;96900.48;;;2.50;76.29
77823;BME280;67013;49.730;17.292;2023-01-19T00:41:38;96898.45;;;2.46;76.36
77823;BME280;67013;49.730;17.292;2023-01-19T00:44:25;96900.26;;;2.47;76.36
77823;BME280;67013;49.730;17.292;2023-01-19T00:46:54;96900.32;;;2.46;76.22
77823;BME280;67013;49.730;17.292;2023-01-19T00:49:24;96900.27;;;2.44;76.30
77823;BME280;67013;49.730;17.292;2023-01-19T00:51:53;96904.19;;;2.42;76.33
77823;BME280;67013;49.730;17.292;2023-01-19T00:54:23;96908.70;;;2.39;76.51
77823;BME280;67013;49.730;17.292;2023-01-19T00:56:52;96907.17;;;2.33;76.50
77823;BME280;67013;49.730;17.292;2023-01-19T00:59:22;96914.92;;;2.30;76.56
77823;BME280;67013;49.730;17.292;2023-01-19T01:01:52;96912.77;;;2.26;76.54
77823;BME280;67013;49.730;17.292;2023-01-19T01:04:22;96918.52;;;2.22;76.64
77823;BME280;67013;49.730;17.292;2023-01-19T01:06:52;96916.56;;;2.18;76.72
77823;BME280;67013;49.730;17.292;2023-01-19T01:09:21;96915.27;;;2.14;76.71
77823;BME280;67013;49.730;17.292;2023-01-19T01:11:51;96917.39;;;2.12;76.86
77823;BME280;67013;49.730;17.292;2023-01-19T01:14:21;96914.30;;;2.12;76.81
77823;BME280;67013;49.730;17.292;2023-01-19T01:16:51;96913.20;;;2.13;76.71
77823;BME280;67013;49.730;17.292;2023-01-19T01:19:20;96914.36;;;2.14;76.64
77823;BME280;67013;49.730;17.292;2023-01-19T01:21:50;96913.73;;;2.13;76.63
77823;BME280;67013;49.730;17.292;2023-01-19T01:24:19;96918.63;;;2.12;76.63
77823;BME280;67013;49.730;17.292;2023-01-19T01:26:49;96920.15;;;2.09;76.74
77823;BME280;67013;49.730;17.292;2023-01-19T01:29:18;96915.73;;;2.06;76.70
77823;BME280;67013;49.730;17.292;2023-01-19T01:31:48;96911.64;;;2.03;76.69
77823;BME280;67013;49.730;17.292;2023-01-19T01:34:17;96911.98;;;2.00;76.93
77823;BME280;67013;49.730;17.292;2023-01-19T01:36:47;96910.04;;;1.95;76.94
77823;BME280;67013;49.730;17.292;2023-01-19T01:39:16;96908.46;;;1.91;77.03
77823;BME280;67013;49.730;17.292;2023-01-19T01:41:46;96913.59;;;1.89;77.03
77823;BME280;67013;49.730;17.292;2023-01-19T01:44:44;96914.27;;;1.88;76.91
77823;BME280;67013;49.730;17.292;2023-01-19T01:47:22;96914.98;;;1.91;77.05
77823;BME280;67013;49.730;17.292;2023-01-19T01:49:58;96911.84;;;1.94;76.98
77823;BME280;67013;49.730;17.292;2023-01-19T01:52:30;96909.61;;;1.97;77.02
77823;BME280;67013;49.730;17.292;2023-01-19T01:55:01;96908.80;;;1.99;76.91
77823;BME280;67013;49.730;17.292;2023-01-19T01:57:36;96911.60;;;2.01;76.77
77823;BME280;67013;49.730;17.292;2023-01-19T02:00:09;96911.22;;;2.01;76.70
77823;BME280;67013;49.730;17.292;2023-01-19T02:02:39;96917.20;;;2.02;76.65
77823;BME280;67013;49.730;17.292;2023-01-19T02:05:25;96918.52;;;2.03;76.73
77823;BME280;67013;49.730;17.292;2023-01-19T02:07:58;96914.85;;;2.04;76.83
77823;BME280;67013;49.730;17.292;2023-01-19T02:10:47;96912.41;;;2.04;76.73
77823;BME280;67013;49.730;17.292;2023-01-19T02:13:37;96906.23;;;2.04;76.69
77823;BME280;67013;49.730;17.292;2023-01-19T02:16:09;96901.66;;;2.04;76.61
77823;BME280;67013;49.730;17.292;2023-01-19T02:18:40;96902.97;;;2.02;76.50
77823;BME280;67013;49.730;17.292;2023-01-19T02:21:13;96907.89;;;2.03;76.69
77823;BME280;67013;49.730;17.292;2023-01-19T02:23:45;96907.32;;;2.04;76.64
77823;BME280;67013;49.730;17.292;2023-01-19T02:26:19;96904.11;;;2.06;76.53
77823;BME280;67013;49.730;17.292;2023-01-19T02:28:52;96905.81;;;2.08;76.65
77823;BME280;67013;49.730;17.292;2023-01-19T02:31:25;96914.26;;;2.10;76.50
77823;BME280;67013;49.730;17.292;2023-01-19T02:33:55;96916.73;;;2.12;76.55
77823;BME280;67013;49.730;17.292;2023-01-19T02:36:27;96916.20;;;2.09;76.60
77823;BME280;67013;49.730;17.292;2023-01-19T02:39:00;96921.25;;;2.11;76.48
77823;BME280;67013;49.730;17.292;2023-01-19T02:41:33;96927.91;;;2.11;76.49
77823;BME280;67013;49.730;17.292;2023-01-19T02:44:04;96931.41;;;2.10;76.50
77823;BME280;67013;49.730;17.292;2023-01-19T02:46:35;96934.48;;;2.08;76.55
77823;BME280;67013;49.730;17.292;2023-01-19T02:49:05;96940.95;;;2.06;76.62
77823;BME280;67013;49.730;17.292;2023-01-19T02:51:34;96946.55;;;2.04;76.53
77823;BME280;67013;49.730;17.292;2023-01-19T02:57:11;96953.90;;;2.07;76.55
77823;BME280;67013;49.730;17.292;2023-01-19T03:00:01;96953.80;;;2.11;76.54
77823;BME280;67013;49.730;17.292;2023-01-19T03:02:38;96952.38;;;2.16;76.37
77823;BME280;67013;49.730;17.292;2023-01-19T03:05:31;96951.85;;;2.19;76.41
77823;BME280;67013;49.730;17.292;2023-01-19T03:08:09;96953.73;;;2.22;76.08
77823;BME280;67013;49.730;17.292;2023-01-19T03:10:49;96967.90;;;2.22;76.05
77823;BME280;67013;49.730;17.292;2023-01-19T03:13:28;96976.14;;;2.22;76.05
77823;BME280;67013;49.730;17.292;2023-01-19T03:16:08;96989.84;;;2.22;75.98
77823;BME280;67013;49.730;17.292;2023-01-19T03:18:41;96997.02;;;2.20;75.92
77823;BME280;67013;49.730;17.292;2023-01-19T03:21:13;96996.74;;;2.16;75.88
77823;BME280;67013;49.730;17.292;2023-01-19T03:23:46;97005.11;;;2.14;75.77
77823;BME280;67013;49.730;17.292;2023-01-19T03:26:20;97013.77;;;2.09;75.86
77823;BME280;67013;49.730;17.292;2023-01-19T03:28:51;97025.48;;;2.06;75.99
77823;BME280;67013;49.730;17.292;2023-01-19T03:31:25;97029.55;;;2.06;75.96
77823;BME280;67013;49.730;17.292;2023-01-19T03:33:57;97035.59;;;2.08;75.77
77823;BME280;67013;49.730;17.292;2023-01-19T03:36:28;97038.55;;;2.10;75.95
77823;BME280;67013;49.730;17.292;2023-01-19T03:38:58;97035.97;;;2.14;75.97
77823;BME280;67013;49.730;17.292;2023-01-19T03:41:31;97037.83;;;2.18;75.91
77823;BME280;67013;49.730;17.292;2023-01-19T03:44:02;97040.88;;;2.21;75.86
77823;BME280;67013;49.730;17.292;2023-01-19T03:46:34;97035.86;;;2.24;75.95
77823;BME280;67013;49.730;17.292;2023-01-19T03:49:03;97029.33;;;2.24;75.90
77823;BME280;67013;49.730;17.292;2023-01-19T03:51:36;97025.34;;;2.25;75.86
77823;BME280;67013;49.730;17.292;2023-01-19T03:54:08;97021.36;;;2.26;75.92
77823;BME280;67013;49.730;17.292;2023-01-19T03:56:37;97030.76;;;2.26;75.93
77823;BME280;67013;49.730;17.292;2023-01-19T03:59:07;97035.23;;;2.26;75.98
77823;BME280;67013;49.730;17.292;2023-01-19T04:01:36;97037.20;;;2.25;75.99
77823;BME280;67013;49.730;17.292;2023-01-19T04:04:06;97039.71;;;2.23;75.84
77823;BME280;67013;49.730;17.292;2023-01-19T04:06:35;97041.72;;;2.21;75.85
77823;BME280;67013;49.730;17.292;2023-01-19T04:09:05;97044.97;;;2.19;75.76
77823;BME280;67013;49.730;17.292;2023-01-19T04:11:35;97046.90;;;2.15;75.89
77823;BME280;67013;49.730;17.292;2023-01-19T04:14:04;97044.84;;;2.15;75.75
77823;BME280;67013;49.730;17.292;2023-01-19T04:16:34;97043.02;;;2.17;75.60
77823;BME280;67013;49.730;17.292;2023-01-19T04:19:03;97039.54;;;2.18;75.67
77823;BME280;67013;49.730;17.292;2023-01-19T04:21:33;97030.67;;;2.20;75.64
77823;BME280;67013;49.730;17.292;2023-01-19T04:24:03;97027.16;;;2.21;75.69
77823;BME280;67013;49.730;17.292;2023-01-19T04:26:32;97031.06;;;2.22;75.66
77823;BME280;67013;49.730;17.292;2023-01-19T04:29:02;97036.57;;;2.22;75.66
77823;BME280;67013;49.730;17.292;2023-01-19T04:31:31;97039.20;;;2.21;75.55
77823;BME280;67013;49.730;17.292;2023-01-19T04:34:02;97047.54;;;2.19;75.56
77823;BME280;67013;49.730;17.292;2023-01-19T04:36:32;97047.02;;;2.16;75.45
77823;BME280;67013;49.730;17.292;2023-01-19T04:39:01;97044.23;;;2.13;75.63
77823;BME280;67013;49.730;17.292;2023-01-19T04:41:32;97045.08;;;2.10;75.80
77823;BME280;67013;49.730;17.292;2023-01-19T04:44:01;97049.97;;;2.06;75.59
77823;BME280;67013;49.730;17.292;2023-01-19T04:46:31;97052.92;;;2.03;75.79
77823;BME280;67013;49.730;17.292;2023-01-19T04:49:00;97051.58;;;2.02;75.65
77823;BME280;67013;49.730;17.292;2023-01-19T04:51:29;97055.66;;;2.03;75.80
77823;BME280;67013;49.730;17.292;2023-01-19T04:53:59;97056.43;;;2.04;75.78
77823;BME280;67013;49.730;17.292;2023-01-19T04:56:28;97058.52;;;2.07;75.71
77823;BME280;67013;49.730;17.292;2023-01-19T04:58:58;97056.55;;;2.08;75.58
77823;BME280;67013;49.730;17.292;2023-01-19T05:01:28;97049.83;;;2.08;75.39
77823;BME280;67013;49.730;17.292;2023-01-19T05:04:00;97047.33;;;2.07;75.46
77823;BME280;67013;49.730;17.292;2023-01-19T05:06:32;97051.42;;;2.05;75.63
77823;BME280;67013;49.730;17.292;2023-01-19T05:09:02;97053.81;;;2.02;75.46
77823;BME280;67013;49.730;17.292;2023-01-19T05:11:31;97053.38;;;1.98;75.55
77823;BME280;67013;49.730;17.292;2023-01-19T05:14:01;97056.17;;;1.94;75.53
77823;BME280;67013;49.730;17.292;2023-01-19T05:16:30;97061.11;;;1.90;75.62
77823;BME280;67013;49.730;17.292;2023-01-19T05:19:00;97061.98;;;1.84;75.50
77823;BME280;67013;49.730;17.292;2023-01-19T05:21:29;97065.92;;;1.78;75.71
77823;BME280;67013;49.730;17.292;2023-01-19T05:23:59;97066.43;;;1.75;75.72
77823;BME280;67013;49.730;17.292;2023-01-19T05:26:28;97065.48;;;1.74;75.67
77823;BME280;67013;49.730;17.292;2023-01-19T05:28:58;97066.58;;;1.72;75.80
77823;BME280;67013;49.730;17.292;2023-01-19T05:31:27;97067.05;;;1.73;75.70
77823;BME280;67013;49.730;17.292;2023-01-19T05:33:57;97067.92;;;1.73;75.62
77823;BME280;67013;49.730;17.292;2023-01-19T05:36:26;97064.29;;;1.70;75.59
77823;BME280;67013;49.730;17.292;2023-01-19T05:38:56;97057.25;;;1.68;75.66
77823;BME280;67013;49.730;17.292;2023-01-19T05:41:25;97055.80;;;1.63;75.73
77823;BME280;67013;49.730;17.292;2023-01-19T05:43:55;97054.41;;;1.58;75.61
77823;BME280;67013;49.730;17.292;2023-01-19T05:46:25;97058.69;;;1.52;75.71
77823;BME280;67013;49.730;17.292;2023-01-19T05:48:54;97062.86;;;1.45;75.78
77823;BME280;67013;49.730;17.292;2023-01-19T05:51:23;97069.15;;;1.39;75.89
77823;BME280;67013;49.730;17.292;2023-01-19T05:53:54;97073.86;;;1.35;76.05
77823;BME280;67013;49.730;17.292;2023-01-19T05:56:23;97077.25;;;1.30;76.26
77823;BME280;67013;49.730;17.292;2023-01-19T05:58:52;97084.42;;;1.27;76.01
77823;BME280;67013;49.730;17.292;2023-01-19T06:01:22;97086.20;;;1.26;76.00
77823;BME280;67013;49.730;17.292;2023-01-19T06:03:51;97082.27;;;1.26;76.19
77823;BME280;67013;49.730;17.292;2023-01-19T06:06:21;97076.41;;;1.26;76.00
77823;BME280;67013;49.730;17.292;2023-01-19T06:08:50;97072.77;;;1.27;76.02
77823;BME280;67013;49.730;17.292;2023-01-19T06:11:20;97078.29;;;1.27;76.06
77823;BME280;67013;49.730;17.292;2023-01-19T06:13:49;97083.30;;;1.26;76.27
77823;BME280;67013;49.730;17.292;2023-01-19T06:16:19;97080.02;;;1.23;76.29
77823;BME280;67013;49.730;17.292;2023-01-19T06:18:48;97081.89;;;1.20;76.35
77823;BME280;67013;49.730;17.292;2023-01-19T06:21:18;97081.23;;;1.17;76.44
77823;BME280;67013;49.730;17.292;2023-01-19T06:23:47;97082.25;;;1.15;76.39
77823;BME280;67013;49.730;17.292;2023-01-19T06:26:17;97085.36;;;1.11;76.63
77823;BME280;67013;49.730;17.292;2023-01-19T06:28:46;97086.20;;;1.08;76.56
77823;BME280;67013;49.730;17.292;2023-01-19T06:31:15;97090.32;;;1.04;76.63
77823;BME280;67013;49.730;17.292;2023-01-19T06:33:45;97090.52;;;1.04;76.57
77823;BME280;67013;49.730;17.292;2023-01-19T06:36:14;97091.30;;;1.05;76.54
77823;BME280;67013;49.730;17.292;2023-01-19T06:38:44;97092.18;;;1.08;76.54
77823;BME280;67013;49.730;17.292;2023-01-19T06:41:13;97095.77;;;1.11;76.57
77823;BME280;67013;49.730;17.292;2023-01-19T06:43:43;97093.39;;;1.14;76.53
77823;BME280;67013;49.730;17.292;2023-01-19T06:46:12;97090.88;;;1.16;76.57
77823;BME280;67013;49.730;17.292;2023-01-19T06:48:42;97090.17;;;1.16;76.48
77823;BME280;67013;49.730;17.292;2023-01-19T06:51:11;97089.27;;;1.17;76.34
77823;BME280;67013;49.730;17.292;2023-01-19T06:53:40;97085.05;;;1.16;76.42
77823;BME280;67013;49.730;17.292;2023-01-19T06:56:10;97087.55;;;1.15;76.13
77823;BME280;67013;49.730;17.292;2023-01-19T06:58:40;97089.04;;;1.12;76.29
77823;BME280;67013;49.730;17.292;2023-01-19T07:01:10;97092.57;;;1.10;76.31
77823;BME280;67013;49.730;17.292;2023-01-19T07:03:39;97092.45;;;1.09;76.32
77823;BME280;67013;49.730;17.292;2023-01-19T07:06:09;97097.19;;;1.07;76.08
77823;BME280;67013;49.730;17.292;2023-01-19T07:08:39;97103.45;;;1.09;76.08
77823;BME280;67013;49.730;17.292;2023-01-19T07:11:10;97103.61;;;1.09;76.01
77823;BME280;67013;49.730;17.292;2023-01-19T07:13:40;97113.02;;;1.15;75.94
77823;BME280;67013;49.730;17.292;2023-01-19T07:16:12;97118.23;;;1.20;75.86
77823;BME280;67013;49.730;17.292;2023-01-19T07:18:42;97129.92;;;1.25;75.94
77823;BME280;67013;49.730;17.292;2023-01-19T07:21:12;97127.30;;;1.29;75.64
77823;BME280;67013;49.730;17.292;2023-01-19T07:23:42;97125.79;;;1.32;75.70
77823;BME280;67013;49.730;17.292;2023-01-19T07:26:12;97126.79;;;1.35;75.50
77823;BME280;67013;49.730;17.292;2023-01-19T07:28:43;97128.17;;;1.38;75.43
77823;BME280;67013;49.730;17.292;2023-01-19T07:31:13;97129.77;;;1.40;75.43
77823;BME280;67013;49.730;17.292;2023-01-19T07:33:43;97128.33;;;1.42;75.48
77823;BME280;67013;49.730;17.292;2023-01-19T07:36:13;97141.89;;;1.44;75.63
77823;BME280;67013;49.730;17.292;2023-01-19T07:38:43;97145.58;;;1.45;75.52
77823;BME280;67013;49.730;17.292;2023-01-19T07:41:12;97151.81;;;1.48;75.44
77823;BME280;67013;49.730;17.292;2023-01-19T07:43:41;97150.55;;;1.49;75.44
77823;BME280;67013;49.730;17.292;2023-01-19T07:46:11;97147.89;;;1.53;75.14
77823;BME280;67013;49.730;17.292;2023-01-19T07:48:40;97147.08;;;1.58;74.96
77823;BME280;67013;49.730;17.292;2023-01-19T07:51:11;97150.63;;;1.65;74.70
77823;BME280;67013;49.730;17.292;2023-01-19T07:53:45;97155.70;;;1.72;74.72
77823;BME280;67013;49.730;17.292;2023-01-19T07:56:15;97154.10;;;1.79;74.64
77823;BME280;67013;49.730;17.292;2023-01-19T07:58:44;97154.19;;;1.87;74.72
77823;BME280;67013;49.730;17.292;2023-01-19T08:01:14;97151.59;;;1.93;74.67
77823;BME280;67013;49.730;17.292;2023-01-19T08:03:45;97152.58;;;1.99;74.57
77823;BME280;67013;49.730;17.292;2023-01-19T08:06:20;97155.16;;;2.05;74.57
77823;BME280;67013;49.730;17.292;2023-01-19T08:08:50;97162.79;;;2.12;74.53
77823;BME280;67013;49.730;17.292;2023-01-19T08:11:20;97154.20;;;2.19;74.49
77823;BME280;67013;49.730;17.292;2023-01-19T08:13:49;97149.02;;;2.25;74.23
77823;BME280;67013;49.730;17.292;2023-01-19T08:16:19;97144.33;;;2.32;74.32
77823;BME280;67013;49.730;17.292;2023-01-19T08:18:48;97142.57;;;2.38;74.22
77823;BME280;67013;49.730;17.292;2023-01-19T08:21:18;97150.16;;;2.43;73.85
77823;BME280;67013;49.730;17.292;2023-01-19T08:23:53;97160.63;;;2.49;73.77
77823;BME280;67013;49.730;17.292;2023-01-19T08:26:27;97174.48;;;2.55;73.39
77823;BME280;67013;49.730;17.292;2023-01-19T08:28:58;97181.40;;;2.60;73.22
77823;BME280;67013;49.730;17.292;2023-01-19T08:31:29;97185.27;;;2.64;73.37
77823;BME280;67013;49.730;17.292;2023-01-19T08:33:59;97193.64;;;2.67;73.02
77823;BME280;67013;49.730;17.292;2023-01-19T08:36:28;97203.04;;;2.68;73.01
77823;BME280;67013;49.730;17.292;2023-01-19T08:38:58;97213.10;;;2.69;73.18
77823;BME280;67013;49.730;17.292;2023-01-19T08:41:27;97219.96;;;2.69;73.12
77823;BME280;67013;49.730;17.292;2023-01-19T08:43:56;97224.02;;;2.70;73.08
77823;BME280;67013;49.730;17.292;2023-01-19T08:46:26;97221.64;;;2.69;72.79
77823;BME280;67013;49.730;17.292;2023-01-19T08:48:56;97219.45;;;2.69;72.79
77823;BME280;67013;49.730;17.292;2023-01-19T08:51:26;97223.39;;;2.69;72.71
77823;BME280;67013;49.730;17.292;2023-01-19T08:53:55;97218.38;;;2.70;73.00
77823;BME280;67013;49.730;17.292;2023-01-19T08:56:25;97214.41;;;2.70;73.12
77823;BME280;67013;49.730;17.292;2023-01-19T08:58:54;97207.05;;;2.73;73.24
77823;BME280;67013;49.730;17.292;2023-01-19T09:01:24;97204.61;;;2.79;73.14
77823;BME280;67013;49.730;17.292;2023-01-19T09:03:53;97208.60;;;2.87;73.04
77823;BME280;67013;49.730;17.292;2023-01-19T09:06:23;97207.08;;;2.95;72.71
77823;BME280;67013;49.730;17.292;2023-01-19T09:08:53;97205.95;;;3.02;72.86
77823;BME280;67013;49.730;17.292;2023-01-19T09:11:22;97206.94;;;3.08;72.85
77823;BME280;67013;49.730;17.292;2023-01-19T09:13:52;97205.14;;;3.15;72.91
77823;BME280;67013;49.730;17.292;2023-01-19T09:16:21;97206.09;;;3.19;72.61
77823;BME280;67013;49.730;17.292;2023-01-19T09:18:51;97207.44;;;3.25;72.52
77823;BME280;67013;49.730;17.292;2023-01-19T09:21:21;97209.44;;;3.32;72.22
77823;BME280;67013;49.730;17.292;2023-01-19T09:23:50;97205.14;;;3.37;72.14
77823;BME280;67013;49.730;17.292;2023-01-19T09:26:21;97201.42;;;3.44;71.65
77823;BME280;67013;49.730;17.292;2023-01-19T09:28:51;97203.95;;;3.50;71.41
77823;BME280;67013;49.730;17.292;2023-01-19T09:31:21;97207.67;;;3.57;71.10
77823;BME280;67013;49.730;17.292;2023-01-19T09:33:51;97208.00;;;3.63;71.06
77823;BME280;67013;49.730;17.292;2023-01-19T09:36:20;97209.02;;;3.68;70.84
77823;BME280;67013;49.730;17.292;2023-01-19T09:38:52;97213.59;;;3.74;70.14
77823;BME280;67013;49.730;17.292;2023-01-19T09:41:22;97224.92;;;3.80;69.75
77823;BME280;67013;49.730;17.292;2023-01-19T09:43:55;97231.09;;;3.86;69.73
77823;BME280;67013;49.730;17.292;2023-01-19T09:46:31;97237.92;;;3.92;69.40
77823;BME280;67013;49.730;17.292;2023-01-19T09:49:04;97240.66;;;3.98;69.65
77823;BME280;67013;49.730;17.292;2023-01-19T09:51:42;97243.92;;;4.05;69.20
77823;BME280;67013;49.730;17.292;2023-01-19T09:54:14;97247.45;;;4.15;68.64
77823;BME280;67013;49.730;17.292;2023-01-19T09:56:45;97246.46;;;4.24;68.41
77823;BME280;67013;49.730;17.292;2023-01-19T09:59:23;97243.82;;;4.36;68.22
77823;BME280;67013;49.730;17.292;2023-01-19T10:02:03;97238.13;;;4.46;68.27
77823;BME280;67013;49.730;17.292;2023-01-19T10:04:39;97236.45;;;4.56;68.21
77823;BME280;67013;49.730;17.292;2023-01-19T10:07:18;97234.81;;;4.65;68.51
77823;BME280;67013;49.730;17.292;2023-01-19T10:10:17;97231.33;;;4.73;67.48
77823;BME280;67013;49.730;17.292;2023-01-19T10:12:58;97224.23;;;4.81;67.66
77823;BME280;67013;49.730;17.292;2023-01-19T10:15:41;97224.22;;;4.84;67.25
77823;BME280;67013;49.730;17.292;2023-01-19T10:18:18;97215.44;;;4.86;67.18
77823;BME280;67013;49.730;17.292;2023-01-19T10:20:50;97208.58;;;4.88;67.17
77823;BME280;67013;49.730;17.292;2023-01-19T10:23:37;97204.55;;;4.89;66.88
77823;BME280;67013;49.730;17.292;2023-01-19T10:26:11;97203.48;;;4.89;67.03
77823;BME280;67013;49.730;17.292;2023-01-19T10:28:42;97200.09;;;4.91;66.67
77823;BME280;67013;49.730;17.292;2023-01-19T10:31:13;97196.39;;;4.92;66.75
77823;BME280;67013;49.730;17.292;2023-01-19T10:33:45;97191.08;;;4.97;66.66
77823;BME280;67013;49.730;17.292;2023-01-19T10:36:19;97185.70;;;5.01;66.96
77823;BME280;67013;49.730;17.292;2023-01-19T10:38:49;97189.72;;;5.05;67.18
77823;BME280;67013;49.730;17.292;2023-01-19T10:41:20;97189.40;;;5.09;66.91
77823;BME280;67013;49.730;17.292;2023-01-19T10:44:01;97194.30;;;5.10;66.91
77823;BME280;67013;49.730;17.292;2023-01-19T10:46:36;97192.42;;;5.10;66.61
77823;BME280;67013;49.730;17.292;2023-01-19T10:49:23;97188.43;;;5.10;66.74
77823;BME280;67013;49.730;17.292;2023-01-19T10:51:55;97183.61;;;5.15;66.63
77823;BME280;67013;49.730;17.292;2023-01-19T10:54:26;97184.52;;;5.22;66.69
77823;BME280;67013;49.730;17.292;2023-01-19T10:57:00;97187.20;;;5.30;66.57
77823;BME280;67013;49.730;17.292;2023-01-19T10:59:37;97182.52;;;5.40;66.60
77823;BME280;67013;49.730;17.292;2023-01-19T11:02:18;97185.82;;;5.52;66.59
77823;BME280;67013;49.730;17.292;2023-01-19T11:04:49;97184.34;;;5.58;66.47
77823;BME280;67013;49.730;17.292;2023-01-19T11:07:22;97184.70;;;5.60;66.61
77823;BME280;67013;49.730;17.292;2023-01-19T11:09:53;97181.73;;;5.61;66.11
77823;BME280;67013;49.730;17.292;2023-01-19T11:12:42;97183.45;;;5.63;66.36
77823;BME280;67013;49.730;17.292;2023-01-19T11:15:19;97179.44;;;5.64;66.30
77823;BME280;67013;49.730;17.292;2023-01-19T11:17:48;97175.83;;;5.68;65.89
77823;BME280;67013;49.730;17.292;2023-01-19T11:20:22;97175.02;;;5.70;65.88
77823;BME280;67013;49.730;17.292;2023-01-19T11:23:04;97174.94;;;5.72;65.21
77823;BME280;67013;49.730;17.292;2023-01-19T11:25:35;97181.66;;;5.71;65.10
77823;BME280;67013;49.730;17.292;2023-01-19T11:28:05;97178.27;;;5.71;65.01
77823;BME280;67013;49.730;17.292;2023-01-19T11:30:54;97174.59;;;5.66;65.23
77823;BME280;67013;49.730;17.292;2023-01-19T11:33:32;97178.95;;;5.63;65.22
77823;BME280;67013;49.730;17.292;2023-01-19T11:36:15;97182.02;;;5.59;65.05
77823;BME280;67013;49.730;17.292;2023-01-19T11:38:47;97181.45;;;5.53;65.67
77823;BME280;67013;49.730;17.292;2023-01-19T11:41:19;97185.42;;;5.48;65.83
77823;BME280;67013;49.730;17.292;2023-01-19T11:43:52;97184.70;;;5.46;65.87
77823;BME280;67013;49.730;17.292;2023-01-19T11:46:25;97186.30;;;5.45;65.70
77823;BME280;67013;49.730;17.292;2023-01-19T11:48:57;97183.23;;;5.45;65.58
77823;BME280;67013;49.730;17.292;2023-01-19T11:51:33;97184.09;;;5.47;65.59
77823;BME280;67013;49.730;17.292;2023-01-19T11:54:14;97186.44;;;5.50;65.41
77823;BME280;67013;49.730;17.292;2023-01-19T11:56:47;97186.84;;;5.54;65.36
77823;BME280;67013;49.730;17.292;2023-01-19T11:59:19;97189.75;;;5.59;65.35
77823;BME280;67013;49.730;17.292;2023-01-19T12:01:53;97189.70;;;5.63;65.25
77823;BME280;67013;49.730;17.292;2023-01-19T12:04:26;97187.23;;;5.65;64.87
77823;BME280;67013;49.730;17.292;2023-01-19T12:07:01;97188.94;;;5.68;65.31
77823;BME280;67013;49.730;17.292;2023-01-19T12:09:37;97187.36;;;5.69;65.50
77823;BME280;67013;49.730;17.292;2023-01-19T12:12:16;97188.61;;;5.66;65.50
77823;BME280;67013;49.730;17.292;2023-01-19T12:14:55;97189.09;;;5.62;65.57
77823;BME280;67013;49.730;17.292;2023-01-19T12:17:28;97187.29;;;5.60;66.02
77823;BME280;67013;49.730;17.292;2023-01-19T12:20:03;97188.80;;;5.58;65.58
77823;BME280;67013;49.730;17.292;2023-01-19T12:22:39;97187.34;;;5.57;65.99
77823;BME280;67013;49.730;17.292;2023-01-19T12:25:13;97188.09;;;5.54;65.84
77823;BME280;67013;49.730;17.292;2023-01-19T12:27:47;97189.69;;;5.49;66.05
77823;BME280;67013;49.730;17.292;2023-01-19T12:30:22;97187.07;;;5.39;65.85
77823;BME280;67013;49.730;17.292;2023-01-19T12:33:27;97190.08;;;5.31;66.01
77823;BME280;67013;49.730;17.292;2023-01-19T12:36:03;97185.80;;;5.25;65.82
77823;BME280;67013;49.730;17.292;2023-01-19T12:38:50;97189.56;;;5.23;66.53
77823;BME280;67013;49.730;17.292;2023-01-19T12:41:30;97195.10;;;5.23;66.16
77823;BME280;67013;49.730;17.292;2023-01-19T12:44:23;97197.77;;;5.25;65.95
77823;BME280;67013;49.730;17.292;2023-01-19T12:46:58;97199.83;;;5.27;65.72
77823;BME280;67013;49.730;17.292;2023-01-19T12:49:34;97203.09;;;5.30;66.20
77823;BME280;67013;49.730;17.292;2023-01-19T12:52:18;97206.83;;;5.35;66.03
77823;BME280;67013;49.730;17.292;2023-01-19T12:54:57;97209.10;;;5.40;66.39
77823;BME280;67013;49.730;17.292;2023-01-19T12:57:31;97211.03;;;5.44;66.38
77823;BME280;67013;49.730;17.292;2023-01-19T13:00:05;97206.66;;;5.48;66.20
77823;BME280;67013;49.730;17.292;2023-01-19T13:02:46;97207.84;;;5.48;66.51
77823;BME280;67013;49.730;17.292;2023-01-19T13:05:49;97212.58;;;5.49;66.72
77823;BME280;67013;49.730;17.292;2023-01-19T13:08:21;97219.53;;;5.48;66.65
77823;BME280;67013;49.730;17.292;2023-01-19T13:11:15;97215.26;;;5.50;67.00
77823;BME280;67013;49.730;17.292;2023-01-19T13:19:48;97219.33;;;5.51;66.58
77823;BME280;67013;49.730;17.292;2023-01-19T13:25:32;97229.85;;;5.49;66.45
77823;BME280;67013;49.730;17.292;2023-01-19T13:28:08;97231.56;;;5.44;66.34
77823;BME280;67013;49.730;17.292;2023-01-19T13:30:50;97230.92;;;5.41;66.30
77823;BME280;67013;49.730;17.292;2023-01-19T13:33:23;97231.35;;;5.37;65.84
77823;BME280;67013;49.730;17.292;2023-01-19T13:35:56;97226.92;;;5.34;65.89
77823;BME280;67013;49.730;17.292;2023-01-19T13:38:27;97230.73;;;5.31;65.90
77823;BME280;67013;49.730;17.292;2023-01-19T13:41:02;97236.06;;;5.29;65.53